createdAt,value
2018-05-10T00:00:28.991Z,0.00
2018-05-10T00:01:28.920Z,0.00
2018-05-10T00:02:28.931Z,0.00
2018-05-10T00:03:28.779Z,0.00
2018-05-10T00:04:28.713Z,0.00
2018-05-10T00:05:28.630Z,0.00
2018-05-10T00:06:28.571Z,0.00
2018-05-10T00:07:28.499Z,0.00
2018-05-10T00:08:28.430Z,0.00
2018-05-10T00:09:28.359Z,0.00
2018-05-10T00:10:28.286Z,0.00
2018-05-10T00:11:28.218Z,0.00
2018-05-10T00:12:28.152Z,0.00
2018-05-10T00:13:28.074Z,0.00
2018-05-10T00:14:28.017Z,0.00
2018-05-10T00:15:27.940Z,0.00
2018-05-10T00:16:27.869Z,0.00
2018-05-10T00:17:27.802Z,0.00
2018-05-10T00:18:27.728Z,0.00
2018-05-10T00:19:27.662Z,0.00
2018-05-10T00:20:27.590Z,0.00
2018-05-10T00:21:27.541Z,0.00
2018-05-10T00:22:27.449Z,0.00
2018-05-10T00:23:27.383Z,0.00
2018-05-10T00:24:27.383Z,0.00
2018-05-10T00:25:27.244Z,0.00
2018-05-10T00:26:27.170Z,0.00
2018-05-10T00:27:27.103Z,0.00
2018-05-10T00:28:27.032Z,0.00
2018-05-10T00:29:26.962Z,0.00
2018-05-10T00:30:26.913Z,0.00
2018-05-10T00:31:26.826Z,0.00
2018-05-10T00:32:26.757Z,0.00
2018-05-10T00:33:26.684Z,0.00
2018-05-10T00:34:26.616Z,0.00
2018-05-10T00:35:26.562Z,0.00
2018-05-10T00:36:26.475Z,0.00
2018-05-10T00:37:26.430Z,0.00
2018-05-10T00:38:26.349Z,0.00
2018-05-10T00:39:26.269Z,0.00
2018-05-10T00:40:26.197Z,0.00
2018-05-10T00:41:26.129Z,0.00
2018-05-10T00:42:26.052Z,0.00
2018-05-10T00:43:25.991Z,0.00
2018-05-10T00:44:25.917Z,0.00
2018-05-10T00:45:25.848Z,0.00
2018-05-10T00:46:25.790Z,0.00
2018-05-10T00:47:25.707Z,0.00
2018-05-10T00:48:25.645Z,0.00
2018-05-10T00:49:25.576Z,0.00
2018-05-10T00:50:25.500Z,0.00
2018-05-10T00:51:25.434Z,0.00
2018-05-10T00:52:25.362Z,0.00
2018-05-10T00:53:25.289Z,0.00
2018-05-10T00:54:25.225Z,0.00
2018-05-10T00:55:25.157Z,0.00
2018-05-10T00:56:25.119Z,0.00
2018-05-10T00:57:25.014Z,0.00
2018-05-10T00:58:24.935Z,0.00
2018-05-10T00:59:24.874Z,0.00
2018-05-10T01:00:24.801Z,0.00
2018-05-10T01:01:24.730Z,0.00
2018-05-10T01:02:24.666Z,0.00
2018-05-10T01:03:24.594Z,0.00
2018-05-10T01:04:24.518Z,0.00
2018-05-10T01:05:24.449Z,0.00
2018-05-10T01:06:24.385Z,0.00
2018-05-10T01:07:24.313Z,0.00
2018-05-10T01:08:24.239Z,0.00
2018-05-10T01:09:24.171Z,0.00
2018-05-10T01:10:24.098Z,0.00
2018-05-10T01:11:24.031Z,0.00
2018-05-10T01:12:23.956Z,0.00
2018-05-10T01:13:23.910Z,0.00
2018-05-10T01:14:23.823Z,0.00
2018-05-10T01:15:23.752Z,0.00
2018-05-10T01:16:23.681Z,0.00
2018-05-10T01:17:23.614Z,0.00
2018-05-10T01:18:23.552Z,0.00
2018-05-10T01:19:23.471Z,0.00
2018-05-10T01:20:23.400Z,0.00
2018-05-10T01:21:23.336Z,0.00
2018-05-10T01:22:23.262Z,0.00
2018-05-10T01:23:23.193Z,0.00
2018-05-10T01:24:23.118Z,0.00
2018-05-10T01:25:23.068Z,0.00
2018-05-10T01:26:22.991Z,0.00
2018-05-10T01:27:22.912Z,0.00
2018-05-10T01:28:22.838Z,0.00
2018-05-10T01:29:22.775Z,0.00
2018-05-10T01:30:22.703Z,0.00
2018-05-10T01:31:22.629Z,0.00
2018-05-10T01:32:22.559Z,0.00
2018-05-10T01:33:22.490Z,0.00
2018-05-10T01:34:22.419Z,0.00
2018-05-10T01:35:22.347Z,0.00
2018-05-10T01:36:22.282Z,0.00
2018-05-10T01:37:22.207Z,0.00
2018-05-10T01:38:22.142Z,0.00
2018-05-10T01:39:22.069Z,0.00
2018-05-10T01:40:21.999Z,0.00
2018-05-10T01:41:21.927Z,0.00
2018-05-10T01:42:21.857Z,0.00
2018-05-10T01:43:21.788Z,0.00
2018-05-10T01:44:21.713Z,0.00
2018-05-10T01:45:21.650Z,0.00
2018-05-10T01:46:21.577Z,0.00
2018-05-10T01:47:21.511Z,0.00
2018-05-10T01:48:21.436Z,0.00
2018-05-10T01:49:21.377Z,0.00
2018-05-10T01:50:21.295Z,0.00
2018-05-10T01:51:21.228Z,0.00
2018-05-10T01:52:21.172Z,0.00
2018-05-10T01:53:21.087Z,0.00
2018-05-10T01:54:21.017Z,0.00
2018-05-10T01:55:20.943Z,0.00
2018-05-10T01:56:20.866Z,0.00
2018-05-10T01:57:20.816Z,0.00
2018-05-10T01:58:20.734Z,0.00
2018-05-10T01:59:20.677Z,0.00
2018-05-10T02:00:20.592Z,0.00
2018-05-10T02:01:20.518Z,0.00
2018-05-10T02:02:20.462Z,0.00
2018-05-10T02:03:20.392Z,0.00
2018-05-10T02:04:20.315Z,0.00
2018-05-10T02:05:20.240Z,0.00
2018-05-10T02:06:20.170Z,0.00
2018-05-10T02:07:20.104Z,0.00
2018-05-10T02:08:20.033Z,0.00
2018-05-10T02:09:19.960Z,0.00
2018-05-10T02:10:19.889Z,0.00
2018-05-10T02:11:19.833Z,0.00
2018-05-10T02:12:19.745Z,0.00
2018-05-10T02:13:19.686Z,0.00
2018-05-10T02:14:19.607Z,0.00
2018-05-10T02:15:19.541Z,0.00
2018-05-10T02:16:19.471Z,0.00
2018-05-10T02:17:19.403Z,0.00
2018-05-10T02:18:19.325Z,0.00
2018-05-10T02:19:19.258Z,0.00
2018-05-10T02:20:19.183Z,0.00
2018-05-10T02:21:19.123Z,0.00
2018-05-10T02:22:19.044Z,0.00
2018-05-10T02:23:18.977Z,0.00
2018-05-10T02:24:18.909Z,0.00
2018-05-10T02:25:18.840Z,0.00
2018-05-10T02:26:18.763Z,0.00
2018-05-10T02:27:18.695Z,0.00
2018-05-10T02:28:18.633Z,0.00
2018-05-10T02:29:18.552Z,0.00
2018-05-10T02:30:18.481Z,0.00
2018-05-10T02:31:18.418Z,0.00
2018-05-10T02:32:18.340Z,0.00
2018-05-10T02:33:18.264Z,0.00
2018-05-10T02:34:18.200Z,0.00
2018-05-10T02:35:18.128Z,0.00
2018-05-10T02:36:18.107Z,0.00
2018-05-10T02:37:17.989Z,0.00
2018-05-10T02:38:17.918Z,0.00
2018-05-10T02:39:17.847Z,0.00
2018-05-10T02:40:17.775Z,0.00
2018-05-10T02:41:17.703Z,0.00
2018-05-10T02:42:17.635Z,0.00
2018-05-10T02:43:17.565Z,0.00
2018-05-10T02:44:17.503Z,0.00
2018-05-10T02:45:17.432Z,0.00
2018-05-10T02:46:17.363Z,0.00
2018-05-10T02:47:17.284Z,0.00
2018-05-10T02:48:17.214Z,0.00
2018-05-10T02:49:17.188Z,0.00
2018-05-10T02:50:17.072Z,0.00
2018-05-10T02:51:16.999Z,0.00
2018-05-10T02:52:16.932Z,0.00
2018-05-10T02:53:16.861Z,0.00
2018-05-10T02:54:16.788Z,0.00
2018-05-10T02:55:16.722Z,0.00
2018-05-10T02:56:16.643Z,0.00
2018-05-10T02:57:16.583Z,0.00
2018-05-10T02:58:16.506Z,0.00
2018-05-10T02:59:16.436Z,0.00
2018-05-10T03:00:16.371Z,0.00
2018-05-10T03:01:16.297Z,0.00
2018-05-10T03:02:16.230Z,0.00
2018-05-10T03:03:16.154Z,0.00
2018-05-10T03:04:16.086Z,0.00
2018-05-10T03:05:16.019Z,0.00
2018-05-10T03:06:15.936Z,0.00
2018-05-10T03:07:15.873Z,0.00
2018-05-10T03:08:15.798Z,0.00
2018-05-10T03:09:15.723Z,0.00
2018-05-10T03:10:15.660Z,0.00
2018-05-10T03:11:15.588Z,0.00
2018-05-10T03:12:15.523Z,0.00
2018-05-10T03:13:15.445Z,0.00
2018-05-10T03:14:15.380Z,0.00
2018-05-10T03:15:15.312Z,0.00
2018-05-10T03:16:15.231Z,0.00
2018-05-10T03:17:15.162Z,0.00
2018-05-10T03:18:15.091Z,0.00
2018-05-10T03:19:15.055Z,0.00
2018-05-10T03:20:14.949Z,0.00
2018-05-10T03:21:14.878Z,0.00
2018-05-10T03:22:14.812Z,0.00
2018-05-10T03:23:14.738Z,0.00
2018-05-10T03:24:14.668Z,0.00
2018-05-10T03:25:14.596Z,0.00
2018-05-10T03:26:14.524Z,0.00
2018-05-10T03:27:14.453Z,0.00
2018-05-10T03:28:14.391Z,0.00
2018-05-10T03:29:14.360Z,0.00
2018-05-10T03:30:14.248Z,0.00
2018-05-10T03:31:14.165Z,0.00
2018-05-10T03:32:14.100Z,0.00
2018-05-10T03:33:14.116Z,0.00
2018-05-10T03:34:13.963Z,0.00
2018-05-10T03:35:13.908Z,0.00
2018-05-10T03:36:13.814Z,0.00
2018-05-10T03:37:13.784Z,0.00
2018-05-10T03:38:13.676Z,0.00
2018-05-10T03:39:13.600Z,0.00
2018-05-10T03:40:13.530Z,0.00
2018-05-10T03:41:13.461Z,0.00
2018-05-10T03:42:13.389Z,0.00
2018-05-10T03:43:13.319Z,0.00
2018-05-10T03:44:13.245Z,0.00
2018-05-10T03:45:13.178Z,0.00
2018-05-10T03:46:13.104Z,0.00
2018-05-10T03:47:13.037Z,0.00
2018-05-10T03:48:12.965Z,0.00
2018-05-10T03:49:12.890Z,0.00
2018-05-10T03:50:12.824Z,0.00
2018-05-10T03:51:12.752Z,0.00
2018-05-10T03:52:12.677Z,0.00
2018-05-10T03:53:12.612Z,0.00
2018-05-10T03:54:12.537Z,0.00
2018-05-10T03:55:12.475Z,0.00
2018-05-10T03:56:12.397Z,5.63
2018-05-10T03:57:12.326Z,5.63
2018-05-10T03:58:12.254Z,5.63
2018-05-10T03:59:12.193Z,5.63
2018-05-10T04:00:12.111Z,5.63
2018-05-10T04:01:12.040Z,5.63
2018-05-10T04:02:11.970Z,5.63
2018-05-10T04:03:11.899Z,5.63
2018-05-10T04:04:11.851Z,5.63
2018-05-10T04:05:11.752Z,5.63
2018-05-10T04:06:11.687Z,5.63
2018-05-10T04:07:11.622Z,5.63
2018-05-10T04:08:11.541Z,5.63
2018-05-10T04:09:11.471Z,11.25
2018-05-10T04:10:11.393Z,11.25
2018-05-10T04:11:11.328Z,11.25
2018-05-10T04:12:11.257Z,11.25
2018-05-10T04:13:11.183Z,11.25
2018-05-10T04:14:11.119Z,11.25
2018-05-10T04:15:11.044Z,11.25
2018-05-10T04:16:11.035Z,11.25
2018-05-10T04:17:10.902Z,11.25
2018-05-10T04:18:10.827Z,11.25
2018-05-10T04:19:10.756Z,11.25
2018-05-10T04:20:10.690Z,11.25
2018-05-10T04:21:10.627Z,11.25
2018-05-10T04:22:10.545Z,16.88
2018-05-10T04:23:10.477Z,16.88
2018-05-10T04:24:10.404Z,16.88
2018-05-10T04:25:10.329Z,16.88
2018-05-10T04:26:10.265Z,16.88
2018-05-10T04:27:10.191Z,16.88
2018-05-10T04:28:10.136Z,16.88
2018-05-10T04:29:10.048Z,16.88
2018-05-10T04:30:09.986Z,22.50
2018-05-10T04:31:09.906Z,22.50
2018-05-10T04:32:09.839Z,22.50
2018-05-10T04:33:09.761Z,22.50
2018-05-10T04:34:09.692Z,22.50
2018-05-10T04:35:09.621Z,22.50
2018-05-10T04:36:09.557Z,22.50
2018-05-10T04:37:09.478Z,22.50
2018-05-10T04:38:09.403Z,22.50
2018-05-10T04:39:09.330Z,22.50
2018-05-10T04:40:09.266Z,22.50
2018-05-10T04:41:09.193Z,22.50
2018-05-10T04:42:09.175Z,22.50
2018-05-10T04:43:09.051Z,22.50
2018-05-10T04:44:08.979Z,22.50
2018-05-10T04:45:08.911Z,22.50
2018-05-10T04:46:08.838Z,22.50
2018-05-10T04:47:08.765Z,22.50
2018-05-10T04:48:08.686Z,22.50
2018-05-10T04:49:08.627Z,22.50
2018-05-10T04:50:08.549Z,22.50
2018-05-10T04:51:08.489Z,28.13
2018-05-10T04:52:08.403Z,28.13
2018-05-10T04:53:08.336Z,28.13
2018-05-10T04:54:08.265Z,28.13
2018-05-10T04:55:08.194Z,28.13
2018-05-10T04:56:08.138Z,28.13
2018-05-10T04:57:08.056Z,28.13
2018-05-10T04:58:07.984Z,28.13
2018-05-10T04:59:07.915Z,33.75
2018-05-10T05:00:07.832Z,33.75
2018-05-10T05:01:07.765Z,33.75
2018-05-10T05:02:07.695Z,33.75
2018-05-10T05:03:07.624Z,39.38
2018-05-10T05:04:07.547Z,39.38
2018-05-10T05:05:07.483Z,39.38
2018-05-10T05:06:07.411Z,45.00
2018-05-10T05:07:07.338Z,45.00
2018-05-10T05:08:07.263Z,45.00
2018-05-10T05:09:07.271Z,45.00
2018-05-10T05:10:07.122Z,50.63
2018-05-10T05:11:07.052Z,50.63
2018-05-10T05:12:06.983Z,56.25
2018-05-10T05:13:06.904Z,56.25
2018-05-10T05:14:06.838Z,56.25
2018-05-10T05:15:06.766Z,61.88
2018-05-10T05:16:06.740Z,61.88
2018-05-10T05:17:06.628Z,56.25
2018-05-10T05:18:06.553Z,56.25
2018-05-10T05:19:06.480Z,50.63
2018-05-10T05:20:06.405Z,50.63
2018-05-10T05:21:06.337Z,45.00
2018-05-10T05:22:06.262Z,45.00
2018-05-10T05:23:06.194Z,45.00
2018-05-10T05:24:06.120Z,45.00
2018-05-10T05:25:06.050Z,45.00
2018-05-10T05:26:05.983Z,39.38
2018-05-10T05:27:05.910Z,39.38
2018-05-10T05:28:05.835Z,39.38
2018-05-10T05:29:05.768Z,39.38
2018-05-10T05:30:05.698Z,39.38
2018-05-10T05:31:05.625Z,45.00
2018-05-10T05:32:05.549Z,45.00
2018-05-10T05:33:05.485Z,45.00
2018-05-10T05:34:05.407Z,50.63
2018-05-10T05:35:05.355Z,50.63
2018-05-10T05:36:05.311Z,50.63
2018-05-10T05:37:05.207Z,45.00
2018-05-10T05:38:05.122Z,45.00
2018-05-10T05:39:05.052Z,45.00
2018-05-10T05:40:04.979Z,50.63
2018-05-10T05:41:05.073Z,56.25
2018-05-10T05:42:04.831Z,56.25
2018-05-10T05:43:04.760Z,56.25
2018-05-10T05:44:04.695Z,50.63
2018-05-10T05:45:04.642Z,50.63
2018-05-10T05:46:04.550Z,50.63
2018-05-10T05:47:04.497Z,50.63
2018-05-10T05:48:04.413Z,50.63
2018-05-10T05:49:04.338Z,50.63
2018-05-10T05:50:04.263Z,50.63
2018-05-10T05:51:04.197Z,45.00
2018-05-10T05:52:04.117Z,45.00
2018-05-10T05:53:04.052Z,45.00
2018-05-10T05:54:03.985Z,39.38
2018-05-10T05:55:03.915Z,39.38
2018-05-10T05:56:03.839Z,39.38
2018-05-10T05:57:03.762Z,33.75
2018-05-10T05:58:03.698Z,33.75
2018-05-10T05:59:03.625Z,33.75
2018-05-10T06:00:03.552Z,33.75
2018-05-10T06:01:03.471Z,33.75
2018-05-10T06:02:03.403Z,33.75
2018-05-10T06:03:03.330Z,33.75
2018-05-10T06:04:03.257Z,33.75
2018-05-10T06:05:03.195Z,33.75
2018-05-10T06:06:03.130Z,39.38
2018-05-10T06:07:03.050Z,45.00
2018-05-10T06:08:02.977Z,45.00
2018-05-10T06:09:02.905Z,56.25
2018-05-10T06:10:02.826Z,56.25
2018-05-10T06:11:02.766Z,61.88
2018-05-10T06:12:02.680Z,67.50
2018-05-10T06:13:02.620Z,73.13
2018-05-10T06:14:02.542Z,78.75
2018-05-10T06:15:02.503Z,78.75
2018-05-10T06:16:02.507Z,90.00
2018-05-10T06:17:02.371Z,90.00
2018-05-10T06:18:02.258Z,90.00
2018-05-10T06:19:02.188Z,95.63
2018-05-10T06:20:02.124Z,95.63
2018-05-10T06:21:02.046Z,95.63
2018-05-10T06:22:01.974Z,101.25
2018-05-10T06:23:01.901Z,101.25
2018-05-10T06:24:01.828Z,101.25
2018-05-10T06:25:01.790Z,101.25
2018-05-10T06:26:01.683Z,106.88
2018-05-10T06:27:01.643Z,106.88
2018-05-10T06:28:01.543Z,112.50
2018-05-10T06:29:01.470Z,112.50
2018-05-10T06:30:01.407Z,112.50
2018-05-10T06:31:01.325Z,112.50
2018-05-10T06:32:01.263Z,112.50
2018-05-10T06:33:01.187Z,112.50
2018-05-10T06:34:01.186Z,112.50
2018-05-10T06:35:01.043Z,112.50
2018-05-10T06:36:00.981Z,118.13
2018-05-10T06:37:00.901Z,118.13
2018-05-10T06:38:00.827Z,123.75
2018-05-10T06:39:00.772Z,123.75
2018-05-10T06:40:00.689Z,118.13
2018-05-10T06:41:00.621Z,118.13
2018-05-10T06:42:00.548Z,123.75
2018-05-10T06:43:00.471Z,129.38
2018-05-10T06:44:00.394Z,135.00
2018-05-10T06:45:00.331Z,140.63
2018-05-10T06:46:00.259Z,146.25
2018-05-10T06:47:00.189Z,146.25
2018-05-10T06:48:00.114Z,157.50
2018-05-10T06:49:00.045Z,163.13
2018-05-10T06:49:59.974Z,168.75
2018-05-10T06:50:59.905Z,168.75
2018-05-10T06:51:59.830Z,174.38
2018-05-10T06:52:59.763Z,174.38
2018-05-10T06:53:59.690Z,174.38
2018-05-10T06:54:59.618Z,174.38
2018-05-10T06:55:59.547Z,174.38
2018-05-10T06:56:59.471Z,174.38
2018-05-10T06:57:59.406Z,168.75
2018-05-10T06:58:59.332Z,168.75
2018-05-10T06:59:59.261Z,174.38
2018-05-10T07:00:59.189Z,174.38
2018-05-10T07:01:59.126Z,180.00
2018-05-10T07:02:59.050Z,163.13
2018-05-10T07:03:58.971Z,191.25
2018-05-10T07:04:58.912Z,191.25
2018-05-10T07:05:58.841Z,196.88
2018-05-10T07:06:58.776Z,202.50
2018-05-10T07:07:58.693Z,202.50
2018-05-10T07:08:58.623Z,202.50
2018-05-10T07:09:58.741Z,202.50
2018-05-10T07:10:58.483Z,202.50
2018-05-10T07:11:58.415Z,196.88
2018-05-10T07:12:58.338Z,196.88
2018-05-10T07:13:58.268Z,191.25
2018-05-10T07:14:58.201Z,196.88
2018-05-10T07:15:58.128Z,202.50
2018-05-10T07:16:58.058Z,196.88
2018-05-10T07:17:57.984Z,202.50
2018-05-10T07:18:57.915Z,202.50
2018-05-10T07:19:57.844Z,202.50
2018-05-10T07:20:57.773Z,213.75
2018-05-10T07:21:57.708Z,213.75
2018-05-10T07:22:57.636Z,213.75
2018-05-10T07:23:57.563Z,208.13
2018-05-10T07:24:57.498Z,202.50
2018-05-10T07:25:57.418Z,208.13
2018-05-10T07:26:57.349Z,196.88
2018-05-10T07:27:57.281Z,185.63
2018-05-10T07:28:57.212Z,185.63
2018-05-10T07:29:57.139Z,185.63
2018-05-10T07:30:57.069Z,168.75
2018-05-10T07:31:57.014Z,163.13
2018-05-10T07:32:56.936Z,180.00
2018-05-10T07:33:56.872Z,213.75
2018-05-10T07:34:56.787Z,225.00
2018-05-10T07:35:56.720Z,225.00
2018-05-10T07:36:56.641Z,236.25
2018-05-10T07:37:56.578Z,230.63
2018-05-10T07:38:56.506Z,225.00
2018-05-10T07:39:56.432Z,253.13
2018-05-10T07:40:56.360Z,264.38
2018-05-10T07:41:56.328Z,241.88
2018-05-10T07:42:56.220Z,230.63
2018-05-10T07:43:56.162Z,236.25
2018-05-10T07:44:56.083Z,236.25
2018-05-10T07:45:56.018Z,253.13
2018-05-10T07:46:55.942Z,286.88
2018-05-10T07:47:55.867Z,315.00
2018-05-10T07:48:55.800Z,303.75
2018-05-10T07:49:55.737Z,281.25
2018-05-10T07:50:55.661Z,253.13
2018-05-10T07:51:55.589Z,253.13
2018-05-10T07:52:55.519Z,253.13
2018-05-10T07:53:55.454Z,258.75
2018-05-10T07:54:55.382Z,258.75
2018-05-10T07:55:55.307Z,258.75
2018-05-10T07:56:55.238Z,247.50
2018-05-10T07:57:55.174Z,241.88
2018-05-10T07:58:55.104Z,241.88
2018-05-10T07:59:55.026Z,247.50
2018-05-10T08:00:54.960Z,281.25
2018-05-10T08:01:54.891Z,309.38
2018-05-10T08:02:54.819Z,326.25
2018-05-10T08:03:54.748Z,286.88
2018-05-10T08:04:54.683Z,230.63
2018-05-10T08:05:54.611Z,219.38
2018-05-10T08:06:54.600Z,213.75
2018-05-10T08:07:54.473Z,213.75
2018-05-10T08:08:54.402Z,230.63
2018-05-10T08:09:54.330Z,253.13
2018-05-10T08:10:54.261Z,264.38
2018-05-10T08:11:54.194Z,264.38
2018-05-10T08:12:54.118Z,253.13
2018-05-10T08:13:54.050Z,236.25
2018-05-10T08:14:53.979Z,219.38
2018-05-10T08:15:53.917Z,196.88
2018-05-10T08:16:53.929Z,168.75
2018-05-10T08:17:53.768Z,151.88
2018-05-10T08:18:53.706Z,157.50
2018-05-10T08:19:53.651Z,168.75
2018-05-10T08:20:53.562Z,180.00
2018-05-10T08:21:53.489Z,191.25
2018-05-10T08:22:53.420Z,208.13
2018-05-10T08:23:53.352Z,219.38
2018-05-10T08:24:53.283Z,219.38
2018-05-10T08:25:53.209Z,213.75
2018-05-10T08:26:53.138Z,202.50
2018-05-10T08:27:53.082Z,196.88
2018-05-10T08:28:53.004Z,191.25
2018-05-10T08:29:52.932Z,185.63
2018-05-10T08:30:52.884Z,174.38
2018-05-10T08:31:52.792Z,163.13
2018-05-10T08:32:52.722Z,146.25
2018-05-10T08:33:52.654Z,140.63
2018-05-10T08:34:52.582Z,135.00
2018-05-10T08:35:52.516Z,140.63
2018-05-10T08:36:52.481Z,140.63
2018-05-10T08:37:52.368Z,146.25
2018-05-10T08:38:52.332Z,146.25
2018-05-10T08:39:52.228Z,146.25
2018-05-10T08:40:52.160Z,146.25
2018-05-10T08:41:52.093Z,146.25
2018-05-10T08:42:52.023Z,151.88
2018-05-10T08:43:51.948Z,146.25
2018-05-10T08:44:51.881Z,146.25
2018-05-10T08:45:51.811Z,151.88
2018-05-10T08:46:51.746Z,168.75
2018-05-10T08:47:51.674Z,191.25
2018-05-10T08:48:51.606Z,219.38
2018-05-10T08:49:51.529Z,241.88
2018-05-10T08:50:51.469Z,275.63
2018-05-10T08:51:51.476Z,292.50
2018-05-10T08:52:51.320Z,298.13
2018-05-10T08:53:51.249Z,303.75
2018-05-10T08:54:51.180Z,303.75
2018-05-10T08:55:51.107Z,303.75
2018-05-10T08:56:51.041Z,298.13
2018-05-10T08:57:50.971Z,275.63
2018-05-10T08:58:50.899Z,258.75
2018-05-10T08:59:50.846Z,236.25
2018-05-10T09:00:50.761Z,219.38
2018-05-10T09:01:50.691Z,208.13
2018-05-10T09:02:50.623Z,202.50
2018-05-10T09:03:50.552Z,196.88
2018-05-10T09:04:50.486Z,196.88
2018-05-10T09:05:50.460Z,185.63
2018-05-10T09:06:50.373Z,185.63
2018-05-10T09:07:50.270Z,185.63
2018-05-10T09:08:50.210Z,180.00
2018-05-10T09:09:50.131Z,174.38
2018-05-10T09:10:50.064Z,174.38
2018-05-10T09:11:49.990Z,180.00
2018-05-10T09:12:49.922Z,185.63
2018-05-10T09:13:49.851Z,191.25
2018-05-10T09:14:49.789Z,191.25
2018-05-10T09:15:49.718Z,196.88
2018-05-10T09:16:49.642Z,191.25
2018-05-10T09:17:49.573Z,191.25
2018-05-10T09:18:49.505Z,196.88
2018-05-10T09:19:49.437Z,213.75
2018-05-10T09:20:49.368Z,219.38
2018-05-10T09:21:49.293Z,236.25
2018-05-10T09:22:49.225Z,236.25
2018-05-10T09:23:49.157Z,253.13
2018-05-10T09:24:49.089Z,258.75
2018-05-10T09:25:49.014Z,264.38
2018-05-10T09:26:48.945Z,270.00
2018-05-10T09:27:48.898Z,270.00
2018-05-10T09:28:48.813Z,270.00
2018-05-10T09:29:48.736Z,264.38
2018-05-10T09:30:48.667Z,253.13
2018-05-10T09:31:48.594Z,247.50
2018-05-10T09:32:48.528Z,236.25
2018-05-10T09:33:48.456Z,219.38
2018-05-10T09:34:48.395Z,208.13
2018-05-10T09:35:48.319Z,196.88
2018-05-10T09:36:48.247Z,196.88
2018-05-10T09:37:48.179Z,202.50
2018-05-10T09:38:48.109Z,208.13
2018-05-10T09:39:48.034Z,202.50
2018-05-10T09:40:47.967Z,196.88
2018-05-10T09:41:47.902Z,191.25
2018-05-10T09:42:47.827Z,180.00
2018-05-10T09:43:47.754Z,168.75
2018-05-10T09:44:47.756Z,163.13
2018-05-10T09:45:47.618Z,163.13
2018-05-10T09:46:47.546Z,174.38
2018-05-10T09:47:47.494Z,185.63
2018-05-10T09:48:47.406Z,202.50
2018-05-10T09:49:47.344Z,208.13
2018-05-10T09:50:47.268Z,219.38
2018-05-10T09:51:47.198Z,219.38
2018-05-10T09:52:47.207Z,225.00
2018-05-10T09:53:47.059Z,219.38
2018-05-10T09:54:46.987Z,219.38
2018-05-10T09:55:46.924Z,225.00
2018-05-10T09:56:46.850Z,230.63
2018-05-10T09:57:46.781Z,236.25
2018-05-10T09:58:46.708Z,241.88
2018-05-10T09:59:46.643Z,241.88
2018-05-10T10:00:46.568Z,241.88
2018-05-10T10:01:46.495Z,241.88
2018-05-10T10:02:46.433Z,247.50
2018-05-10T10:03:46.359Z,236.25
2018-05-10T10:04:46.287Z,230.63
2018-05-10T10:05:46.250Z,225.00
2018-05-10T10:06:46.156Z,213.75
2018-05-10T10:07:46.077Z,196.88
2018-05-10T10:08:46.004Z,191.25
2018-05-10T10:09:45.944Z,191.25
2018-05-10T10:10:45.863Z,191.25
2018-05-10T10:11:45.862Z,196.88
2018-05-10T10:12:45.723Z,196.88
2018-05-10T10:13:45.657Z,202.50
2018-05-10T10:14:45.583Z,202.50
2018-05-10T10:15:45.549Z,196.88
2018-05-10T10:16:45.440Z,202.50
2018-05-10T10:17:45.375Z,196.88
2018-05-10T10:18:45.299Z,202.50
2018-05-10T10:19:45.227Z,202.50
2018-05-10T10:20:45.162Z,202.50
2018-05-10T10:21:45.089Z,208.13
2018-05-10T10:22:45.021Z,208.13
2018-05-10T10:23:44.948Z,213.75
2018-05-10T10:24:44.876Z,213.75
2018-05-10T10:25:44.808Z,213.75
2018-05-10T10:26:44.738Z,208.13
2018-05-10T10:27:44.664Z,208.13
2018-05-10T10:28:44.596Z,208.13
2018-05-10T10:29:44.543Z,208.13
2018-05-10T10:30:44.454Z,213.75
2018-05-10T10:31:44.384Z,213.75
2018-05-10T10:32:44.317Z,219.38
2018-05-10T10:33:44.243Z,213.75
2018-05-10T10:34:44.175Z,202.50
2018-05-10T10:35:44.107Z,202.50
2018-05-10T10:36:44.033Z,196.88
2018-05-10T10:37:43.956Z,191.25
2018-05-10T10:38:43.903Z,185.63
2018-05-10T10:39:43.818Z,185.63
2018-05-10T10:40:43.753Z,191.25
2018-05-10T10:41:43.679Z,191.25
2018-05-10T10:42:43.608Z,191.25
2018-05-10T10:43:43.558Z,196.88
2018-05-10T10:44:43.480Z,202.50
2018-05-10T10:45:43.393Z,196.88
2018-05-10T10:46:43.334Z,196.88
2018-05-10T10:47:43.258Z,185.63
2018-05-10T10:48:43.182Z,174.38
2018-05-10T10:49:43.121Z,157.50
2018-05-10T10:50:43.043Z,146.25
2018-05-10T10:51:42.969Z,135.00
2018-05-10T10:52:42.899Z,129.38
2018-05-10T10:53:42.828Z,123.75
2018-05-10T10:54:42.759Z,129.38
2018-05-10T10:55:42.689Z,129.38
2018-05-10T10:56:42.615Z,135.00
2018-05-10T10:57:42.545Z,140.63
2018-05-10T10:58:42.479Z,151.88
2018-05-10T10:59:42.403Z,168.75
2018-05-10T11:00:42.332Z,180.00
2018-05-10T11:01:42.333Z,196.88
2018-05-10T11:02:42.189Z,208.13
2018-05-10T11:03:42.121Z,225.00
2018-05-10T11:04:42.048Z,236.25
2018-05-10T11:05:41.980Z,236.25
2018-05-10T11:06:41.906Z,236.25
2018-05-10T11:07:41.838Z,236.25
2018-05-10T11:08:41.766Z,241.88
2018-05-10T11:09:41.694Z,253.13
2018-05-10T11:10:41.626Z,275.63
2018-05-10T11:11:41.553Z,298.13
2018-05-10T11:12:41.483Z,326.25
2018-05-10T11:13:41.409Z,343.13
2018-05-10T11:14:41.340Z,360.00
2018-05-10T11:15:41.270Z,382.50
2018-05-10T11:16:41.197Z,399.38
2018-05-10T11:17:41.132Z,444.38
2018-05-10T11:18:41.056Z,483.75
2018-05-10T11:19:40.983Z,540.00
2018-05-10T11:20:40.913Z,635.63
2018-05-10T11:21:40.846Z,596.25
2018-05-10T11:22:40.876Z,579.38
2018-05-10T11:23:40.704Z,579.38
2018-05-10T11:24:40.632Z,596.25
2018-05-10T11:25:40.559Z,607.50
2018-05-10T11:26:40.494Z,601.88
2018-05-10T11:27:40.418Z,585.00
2018-05-10T11:28:40.348Z,579.38
2018-05-10T11:29:40.280Z,568.13
2018-05-10T11:30:40.209Z,573.75
2018-05-10T11:31:40.138Z,590.63
2018-05-10T11:32:40.067Z,601.88
2018-05-10T11:33:39.997Z,630.00
2018-05-10T11:34:39.927Z,652.50
2018-05-10T11:35:39.858Z,663.75
2018-05-10T11:36:39.788Z,691.88
2018-05-10T11:37:39.722Z,697.50
2018-05-10T11:38:39.654Z,669.38
2018-05-10T11:39:39.577Z,652.50
2018-05-10T11:40:39.507Z,601.88
2018-05-10T11:41:39.439Z,568.13
2018-05-10T11:42:39.373Z,534.38
2018-05-10T11:43:39.298Z,500.63
2018-05-10T11:44:39.236Z,450.00
2018-05-10T11:45:39.162Z,410.63
2018-05-10T11:46:39.091Z,376.88
2018-05-10T11:47:39.040Z,343.13
2018-05-10T11:48:38.968Z,331.88
2018-05-10T11:49:38.881Z,315.00
2018-05-10T11:50:38.816Z,298.13
2018-05-10T11:51:38.746Z,264.38
2018-05-10T11:52:38.672Z,258.75
2018-05-10T11:53:38.604Z,275.63
2018-05-10T11:54:38.533Z,275.63
2018-05-10T11:55:38.462Z,236.25
2018-05-10T11:56:38.409Z,180.00
2018-05-10T11:57:38.325Z,146.25
2018-05-10T11:58:38.256Z,140.63
2018-05-10T11:59:38.206Z,146.25
2018-05-10T12:00:38.112Z,163.13
2018-05-10T12:01:38.044Z,157.50
2018-05-10T12:02:37.983Z,174.38
2018-05-10T12:03:37.907Z,191.25
2018-05-10T12:04:37.834Z,213.75
2018-05-10T12:05:37.792Z,225.00
2018-05-10T12:06:37.696Z,213.75
2018-05-10T12:07:37.624Z,191.25
2018-05-10T12:08:37.552Z,174.38
2018-05-10T12:09:37.485Z,191.25
2018-05-10T12:10:37.413Z,185.63
2018-05-10T12:11:37.342Z,174.38
2018-05-10T12:12:37.352Z,174.38
2018-05-10T12:13:37.240Z,213.75
2018-05-10T12:14:37.131Z,241.88
2018-05-10T12:15:37.057Z,281.25
2018-05-10T12:16:36.983Z,292.50
2018-05-10T12:17:36.917Z,247.50
2018-05-10T12:18:36.840Z,236.25
2018-05-10T12:19:36.776Z,247.50
2018-05-10T12:20:36.701Z,275.63
2018-05-10T12:21:36.635Z,309.38
2018-05-10T12:22:36.569Z,331.88
2018-05-10T12:23:36.497Z,326.25
2018-05-10T12:24:36.423Z,326.25
2018-05-10T12:25:36.439Z,320.63
2018-05-10T12:26:36.279Z,309.38
2018-05-10T12:27:36.208Z,292.50
2018-05-10T12:28:36.137Z,286.88
2018-05-10T12:29:36.075Z,292.50
2018-05-10T12:30:35.999Z,303.75
2018-05-10T12:31:35.940Z,286.88
2018-05-10T12:32:35.855Z,270.00
2018-05-10T12:33:35.784Z,253.13
2018-05-10T12:34:35.714Z,241.88
2018-05-10T12:35:35.643Z,219.38
2018-05-10T12:36:35.575Z,202.50
2018-05-10T12:37:35.502Z,168.75
2018-05-10T12:38:35.431Z,157.50
2018-05-10T12:39:35.360Z,129.38
2018-05-10T12:40:35.351Z,129.38
2018-05-10T12:41:35.311Z,146.25
2018-05-10T12:42:35.144Z,168.75
2018-05-10T12:43:35.079Z,151.88
2018-05-10T12:44:35.007Z,123.75
2018-05-10T12:45:34.937Z,118.13
2018-05-10T12:46:34.861Z,106.88
2018-05-10T12:47:34.799Z,106.88